createdAt,value
2023-01-02T00:01:00.305Z,101154.19
2023-01-02T00:03:27.894Z,101155.88
2023-01-02T00:05:56.798Z,101142.88
2023-01-02T00:08:24.270Z,101135.19
2023-01-02T00:10:53.197Z,101146.41
2023-01-02T00:13:21.456Z,101136.88
2023-01-02T00:15:48.975Z,101130.00
2023-01-02T00:18:16.515Z,101123.91
2023-01-02T00:20:43.994Z,101119.56
2023-01-02T00:23:12.760Z,101109.22
2023-01-02T00:25:40.322Z,101097.13
2023-01-02T00:28:07.760Z,101110.06
2023-01-02T00:30:38.591Z,101106.59
2023-01-02T00:33:06.270Z,101103.16
2023-01-02T00:35:33.756Z,101106.63
2023-01-02T00:38:01.178Z,101113.53
2023-01-02T00:40:29.978Z,101111.81
2023-01-02T00:42:57.491Z,101103.13
2023-01-02T00:45:25.062Z,101099.69
2023-01-02T00:47:52.547Z,101115.31
2023-01-02T00:50:20.169Z,101111.84
2023-01-02T00:52:47.926Z,101110.09
2023-01-02T00:55:15.438Z,101107.50
2023-01-02T00:57:44.160Z,101101.50
2023-01-02T01:00:16.983Z,101107.50
2023-01-02T01:02:47.636Z,101101.44
2023-01-02T01:05:15.267Z,101109.28
2023-01-02T01:07:42.684Z,101104.06
2023-01-02T01:10:10.345Z,101105.78
2023-01-02T01:12:37.782Z,101094.53
2023-01-02T01:15:08.470Z,101093.63
2023-01-02T01:17:35.994Z,101095.44
2023-01-02T01:20:03.472Z,101079.88
2023-01-02T01:22:30.910Z,101073.75
2023-01-02T01:24:58.347Z,101080.72
2023-01-02T01:27:25.863Z,101070.38
2023-01-02T01:29:54.063Z,101078.16
2023-01-02T01:32:22.970Z,101066.06
2023-01-02T01:34:50.381Z,101065.09
2023-01-02T01:37:17.824Z,101059.91
2023-01-02T01:39:45.235Z,101058.28
2023-01-02T01:42:14.403Z,101044.41
2023-01-02T01:44:45.847Z,101058.22
2023-01-02T01:47:19.856Z,101043.47
2023-01-02T01:49:52.294Z,101049.53
2023-01-02T01:52:23.501Z,101039.19
2023-01-02T01:54:57.684Z,101040.88
2023-01-02T01:57:29.513Z,101030.47
2023-01-02T01:59:58.154Z,101030.47
2023-01-02T02:02:28.571Z,101031.38
2023-01-02T02:05:00.617Z,101019.19
2023-01-02T02:07:28.568Z,101024.41
2023-01-02T02:10:01.085Z,101011.47
2023-01-02T02:12:30.359Z,101010.66
2023-01-02T02:14:57.775Z,101011.47
2023-01-02T02:17:34.202Z,100996.78
2023-01-02T02:20:14.081Z,100992.41
2023-01-02T02:23:20.518Z,100976.78
2023-01-02T02:26:21.107Z,100973.41
2023-01-02T02:29:27.623Z,100967.28
2023-01-02T02:32:06.002Z,100959.63
2023-01-02T02:34:40.990Z,100950.03
2023-01-02T02:37:18.750Z,100948.28
2023-01-02T02:40:01.357Z,100944.81
2023-01-02T02:42:40.311Z,100948.28
2023-01-02T02:45:15.032Z,100936.22
2023-01-02T02:47:50.307Z,100943.06
2023-01-02T02:50:25.318Z,100955.19
2023-01-02T02:52:58.061Z,100956.09
2023-01-02T02:55:30.109Z,100951.78
2023-01-02T02:57:59.448Z,100956.94
2023-01-02T03:00:27.015Z,100954.69
2023-01-02T03:02:55.956Z,100951.22
2023-01-02T03:05:30.702Z,100933.72
2023-01-02T03:08:06.153Z,100938.78
2023-01-02T03:10:44.002Z,100926.75
2023-01-02T03:13:18.453Z,100913.75
2023-01-02T03:15:54.882Z,100907.78
2023-01-02T03:18:35.478Z,100911.16
2023-01-02T03:21:08.230Z,100914.56
2023-01-02T03:23:40.390Z,100919.78
2023-01-02T03:26:08.249Z,100919.72
2023-01-02T03:28:38.671Z,100912.84
2023-01-02T03:31:10.739Z,100914.59
2023-01-02T03:33:44.385Z,100921.44
2023-01-02T03:36:17.803Z,100914.56
2023-01-02T03:38:52.996Z,100911.06
2023-01-02T03:41:24.307Z,100911.13
2023-01-02T03:43:57.080Z,100907.66
2023-01-02T03:46:33.221Z,100905.03
2023-01-02T03:49:07.383Z,100905.06
2023-01-02T03:51:35.855Z,100905.94
2023-01-02T03:54:03.741Z,100904.34
2023-01-02T03:56:41.877Z,100897.22
2023-01-02T03:59:16.794Z,100893.59
2023-01-02T04:01:50.509Z,100895.44
2023-01-02T04:04:27.144Z,100893.81
2023-01-02T04:06:59.113Z,100889.47
2023-01-02T04:09:30.381Z,100895.59
2023-01-02T04:12:02.909Z,100881.81
2023-01-02T04:14:35.338Z,100889.63
2023-01-02T04:17:05.631Z,100890.38
2023-01-02T04:19:39.183Z,100897.41
2023-01-02T04:22:11.249Z,100899.00
2023-01-02T04:24:43.322Z,100886.88
2023-01-02T04:27:14.802Z,100895.44
2023-01-02T04:29:42.406Z,100891.97
2023-01-02T04:32:15.535Z,100886.88
2023-01-02T04:34:46.755Z,100872.94
2023-01-02T04:37:28.235Z,100880.78
2023-01-02T04:40:00.511Z,100878.97
2023-01-02T04:42:28.009Z,100880.53
2023-01-02T04:44:55.444Z,100884.31
2023-01-02T04:47:22.957Z,100874.72
2023-01-02T04:49:51.694Z,100881.56
2023-01-02T04:52:19.196Z,100883.16
2023-01-02T04:54:46.645Z,100884.03
2023-01-02T04:57:14.106Z,100885.81
2023-01-02T04:59:41.589Z,100888.28
2023-01-02T05:02:09.126Z,100881.31
2023-01-02T05:04:36.640Z,100879.78
2023-01-02T05:07:05.722Z,100883.13
2023-01-02T05:09:33.176Z,100870.91
2023-01-02T05:12:00.775Z,100878.69
2023-01-02T05:14:30.748Z,100876.38
2023-01-02T05:16:58.168Z,100878.88
2023-01-02T05:19:25.632Z,100882.19
2023-01-02T05:22:10.639Z,100878.75
2023-01-02T05:24:39.402Z,100884.97
2023-01-02T05:27:06.793Z,100879.75
2023-01-02T05:29:34.231Z,100880.56
2023-01-02T05:32:01.659Z,100883.22
2023-01-02T05:34:29.112Z,100878.72
2023-01-02T05:36:56.549Z,100871.69
2023-01-02T05:39:24.088Z,100874.41
2023-01-02T05:41:52.861Z,100865.88
2023-01-02T05:44:20.301Z,100861.72
2023-01-02T05:46:47.758Z,100862.53
2023-01-02T05:49:15.215Z,100862.59
2023-01-02T05:51:42.647Z,100873.03
2023-01-02T05:54:10.381Z,100867.88
2023-01-02T05:56:37.803Z,100865.84
2023-01-02T05:59:09.222Z,100864.19
2023-01-02T06:01:37.008Z,100863.28
2023-01-02T06:04:04.871Z,100859.44
2023-01-02T06:06:34.857Z,100867.94
2023-01-02T06:09:02.915Z,100861.88
2023-01-02T06:11:30.969Z,100860.16
2023-01-02T06:13:58.911Z,100867.84
2023-01-02T06:16:28.300Z,100868.56
2023-01-02T06:18:56.233Z,100868.50
2023-01-02T06:21:24.526Z,100864.00
2023-01-02T06:23:55.926Z,100867.66
2023-01-02T06:26:27.688Z,100862.81
2023-01-02T06:28:58.497Z,100860.97
2023-01-02T06:31:29.691Z,100862.75
2023-01-02T06:33:58.707Z,100862.41
2023-01-02T06:36:27.830Z,100862.63
2023-01-02T06:38:55.260Z,100868.34
2023-01-02T06:41:22.760Z,100867.94
2023-01-02T06:43:51.394Z,100867.97
2023-01-02T06:46:20.612Z,100864.38
2023-01-02T06:48:49.792Z,100876.53
2023-01-02T06:51:19.567Z,100873.94
2023-01-02T06:53:47.496Z,100888.44
2023-01-02T06:56:17.470Z,100883.44
2023-01-02T06:58:44.982Z,100875.31
2023-01-02T07:01:16.756Z,100878.94
2023-01-02T07:03:44.581Z,100881.31
2023-01-02T07:06:15.548Z,100882.03
2023-01-02T07:08:44.002Z,100871.81
2023-01-02T07:11:14.157Z,100875.63
2023-01-02T07:13:43.418Z,100887.41
2023-01-02T07:16:13.748Z,100893.31
2023-01-02T07:18:41.909Z,100885.47
2023-01-02T07:21:11.340Z,100896.97
2023-01-02T07:23:41.490Z,100893.41
2023-01-02T07:26:09.567Z,100906.56
2023-01-02T07:28:37.989Z,100893.22
2023-01-02T07:31:09.111Z,100894.09
2023-01-02T07:33:36.847Z,100893.50
2023-01-02T07:36:07.264Z,100900.16
2023-01-02T07:38:35.641Z,100901.13
2023-01-02T07:41:04.500Z,100903.56
2023-01-02T07:43:31.996Z,100907.03
2023-01-02T07:46:04.046Z,100898.53
2023-01-02T07:48:31.633Z,100903.66
2023-01-02T07:51:01.458Z,100911.72
2023-01-02T07:53:29.104Z,100909.72
2023-01-02T07:55:57.491Z,100903.50
2023-01-02T07:58:26.431Z,100907.53
2023-01-02T08:00:58.399Z,100920.41
2023-01-02T08:03:29.090Z,100924.03
2023-01-02T08:06:02.803Z,100921.00
2023-01-02T08:08:30.235Z,100913.09
2023-01-02T08:10:57.830Z,100914.78
2023-01-02T08:13:26.597Z,100914.16
2023-01-02T08:15:54.049Z,100913.16
2023-01-02T08:18:21.488Z,100908.97
2023-01-02T08:20:48.933Z,100912.41
2023-01-02T08:23:16.372Z,100907.47
2023-01-02T08:25:43.811Z,100908.69
2023-01-02T08:28:11.241Z,100916.56
2023-01-02T08:30:42.096Z,100913.75
2023-01-02T08:33:09.584Z,100917.47
2023-01-02T08:35:38.826Z,100915.50
2023-01-02T08:38:06.653Z,100913.72
2023-01-02T08:40:34.195Z,100914.91
2023-01-02T08:43:01.638Z,100913.69
2023-01-02T08:45:29.108Z,100919.06
2023-01-02T08:47:57.923Z,100909.44
2023-01-02T08:50:25.390Z,100922.50
2023-01-02T08:52:52.878Z,100918.25
2023-01-02T08:55:20.467Z,100920.38
2023-01-02T08:57:47.905Z,100929.91
2023-01-02T09:00:16.595Z,100922.84
2023-01-02T09:02:44.228Z,100925.81
2023-01-02T09:05:13.138Z,100923.50
2023-01-02T09:07:40.690Z,100921.41
2023-01-02T09:10:09.254Z,100928.56
2023-01-02T09:12:36.851Z,100920.66
2023-01-02T09:15:04.856Z,100919.81
2023-01-02T09:17:32.878Z,100924.41
2023-01-02T09:20:00.343Z,100930.94
2023-01-02T09:22:29.223Z,100927.59
2023-01-02T09:24:56.663Z,100919.50
2023-01-02T09:27:24.117Z,100922.41
2023-01-02T09:29:53.788Z,100922.53
2023-01-02T09:32:21.386Z,100924.44
2023-01-02T09:34:50.887Z,100931.00
2023-01-02T09:37:18.557Z,100929.31
2023-01-02T09:39:47.411Z,100923.75
2023-01-02T09:42:16.918Z,100918.78
2023-01-02T09:44:48.919Z,100928.59
2023-01-02T09:47:21.006Z,100918.16
2023-01-02T09:49:52.345Z,100907.59
2023-01-02T09:52:22.301Z,100906.31
2023-01-02T09:54:51.657Z,100905.72
2023-01-02T09:57:36.080Z,100893.28
2023-01-02T10:00:09.639Z,100892.28
2023-01-02T10:02:49.889Z,100901.91
2023-01-02T10:05:53.443Z,100893.34
2023-01-02T10:08:32.298Z,100892.78
2023-01-02T10:11:13.754Z,100894.75
2023-01-02T10:16:39.264Z,100886.22
2023-01-02T10:19:15.757Z,100879.97
2023-01-02T10:21:45.489Z,100878.81
2023-01-02T10:24:16.692Z,100878.53
2023-01-02T10:26:49.206Z,100859.31
2023-01-02T10:29:24.444Z,100869.13
2023-01-02T10:31:56.586Z,100861.28
2023-01-02T10:34:25.221Z,100867.69
2023-01-02T10:36:53.082Z,100868.13
2023-01-02T10:39:23.025Z,100857.78
2023-01-02T10:41:54.713Z,100858.97
2023-01-02T10:44:27.013Z,100858.66
2023-01-02T10:46:55.618Z,100864.31
2023-01-02T10:49:25.069Z,100863.19
2023-01-02T10:51:58.104Z,100869.50
2023-01-02T10:54:25.557Z,100872.59
2023-01-02T10:56:55.067Z,100861.31
2023-01-02T10:59:25.492Z,100866.03
2023-01-02T11:01:54.891Z,100861.75
2023-01-02T11:04:25.280Z,100857.03
2023-01-02T11:06:56.319Z,100863.16
2023-01-02T11:09:26.202Z,100861.00
2023-01-02T11:11:56.430Z,100875.19
2023-01-02T11:14:28.086Z,100867.00
2023-01-02T11:16:58.663Z,100856.94
2023-01-02T11:19:29.792Z,100862.09
2023-01-02T11:21:58.044Z,100860.59
2023-01-02T11:24:28.530Z,100862.84
2023-01-02T11:27:01.364Z,100851.38
2023-01-02T11:29:32.675Z,100852.97
2023-01-02T11:32:02.093Z,100851.53
2023-01-02T11:34:34.288Z,100846.28
2023-01-02T11:37:04.798Z,100859.28
2023-01-02T11:39:34.713Z,100867.47
2023-01-02T11:42:34.912Z,100860.94
2023-01-02T11:45:08.260Z,100864.31
2023-01-02T11:47:40.222Z,100873.56
2023-01-02T11:50:08.570Z,100863.59
2023-01-02T11:52:42.598Z,100862.16
2023-01-02T11:55:26.290Z,100866.19
2023-01-02T11:58:01.992Z,100870.94
2023-01-02T12:00:33.735Z,100865.25
2023-01-02T12:03:06.325Z,100863.81
2023-01-02T12:05:42.433Z,100868.59
2023-01-02T12:08:20.822Z,100862.69
2023-01-02T12:10:57.001Z,100858.72
2023-01-02T12:13:52.930Z,100857.13
2023-01-02T12:16:30.835Z,100859.00
2023-01-02T12:19:11.326Z,100867.19
2023-01-02T12:21:46.218Z,100870.84
2023-01-02T12:24:43.317Z,100871.44
2023-01-02T12:27:18.927Z,100874.41
2023-01-02T12:30:09.280Z,100880.00
2023-01-02T12:32:59.961Z,100879.81
2023-01-02T12:35:47.054Z,100878.38
2023-01-02T12:38:22.627Z,100880.56
2023-01-02T12:41:01.997Z,100883.84
2023-01-02T12:43:52.354Z,100883.22
2023-01-02T12:46:36.509Z,100885.91
2023-01-02T12:49:19.274Z,100894.06
2023-01-02T12:51:57.318Z,100887.75
2023-01-02T12:54:45.547Z,100891.63
2023-01-02T12:57:22.665Z,100892.72
2023-01-02T13:00:12.556Z,100886.28
2023-01-02T13:03:20.275Z,100889.63
2023-01-02T13:05:54.700Z,100883.06
2023-01-02T13:08:27.656Z,100883.97
2023-01-02T13:10:57.125Z,100886.47
2023-01-02T13:13:28.405Z,100886.81
2023-01-02T13:16:03.433Z,100894.69
2023-01-02T13:18:59.985Z,100888.91
2023-01-02T13:21:33.837Z,100894.28
2023-01-02T13:24:02.023Z,100893.97
2023-01-02T13:26:31.376Z,100896.44
2023-01-02T13:31:46.421Z,100895.56
2023-01-02T13:34:23.182Z,100893.22
2023-01-02T13:36:58.488Z,100902.44
2023-01-02T13:39:30.059Z,100897.84
2023-01-02T13:42:18.312Z,100896.09
2023-01-02T13:44:48.449Z,100901.16
2023-01-02T13:47:25.710Z,100914.13
2023-01-02T13:50:08.400Z,100907.31
2023-01-02T13:52:36.092Z,100913.50
2023-01-02T13:55:31.593Z,100914.94
2023-01-02T13:58:24.327Z,100910.63
2023-01-02T14:00:55.207Z,100922.38
2023-01-02T14:03:37.676Z,100910.31
2023-01-02T14:06:31.938Z,100912.16
2023-01-02T14:09:11.810Z,100926.78
2023-01-02T14:11:57.016Z,100929.38
2023-01-02T14:14:33.252Z,100924.06
2023-01-02T14:17:14.596Z,100932.28
2023-01-02T14:19:43.579Z,100933.22
2023-01-02T14:22:15.240Z,100930.25
2023-01-02T14:24:44.927Z,100944.94
2023-01-02T14:27:23.424Z,100937.44
2023-01-02T14:29:53.943Z,100939.13
2023-01-02T14:32:25.076Z,100947.13
2023-01-02T14:34:55.372Z,100948.59
2023-01-02T14:37:34.319Z,100957.03
2023-01-02T14:40:11.858Z,100964.28
2023-01-02T14:42:58.223Z,100965.88
2023-01-02T14:45:28.198Z,100972.03
2023-01-02T14:48:01.827Z,100966.75
2023-01-02T14:50:34.274Z,100972.78
2023-01-02T14:53:10.853Z,100971.63
2023-01-02T14:55:42.365Z,100972.97
2023-01-02T14:58:20.179Z,100974.59
2023-01-02T15:00:50.204Z,100972.66
2023-01-02T15:03:27.792Z,100969.22
2023-01-02T15:06:00.592Z,100984.91
2023-01-02T15:08:37.404Z,100988.34
2023-01-02T15:11:35.108Z,100992.53
2023-01-02T15:14:04.464Z,101005.84
2023-01-02T15:16:35.850Z,101010.97
2023-01-02T15:19:03.769Z,101017.66
2023-01-02T15:21:31.617Z,101018.81
2023-01-02T15:24:01.965Z,101034.66
2023-01-02T15:26:33.950Z,101054.53
2023-01-02T15:29:04.471Z,101054.59
2023-01-02T15:31:32.413Z,101051.06
2023-01-02T15:34:01.328Z,101066.88
2023-01-02T15:36:35.393Z,101065.16
2023-01-02T15:39:08.636Z,101067.78
2023-01-02T15:41:43.482Z,101078.09
2023-01-02T15:44:30.737Z,101090.19
2023-01-02T15:46:59.786Z,101091.69
2023-01-02T15:49:27.884Z,101099.56
2023-01-02T15:51:57.458Z,101100.41
2023-01-02T15:54:27.129Z,101104.13
2023-01-02T15:56:54.608Z,101119.63
2023-01-02T15:59:27.751Z,101110.06
2023-01-02T16:01:55.427Z,101111.84
2023-01-02T16:04:27.659Z,101115.28
2023-01-02T16:06:56.906Z,101110.16
2023-01-02T16:09:28.063Z,101127.38
2023-01-02T16:11:58.432Z,101129.16
2023-01-02T16:14:33.018Z,101126.56
2023-01-02T16:17:04.563Z,101131.72
2023-01-02T16:19:36.138Z,101130.00
2023-01-02T16:22:15.527Z,101132.63
2023-01-02T16:24:48.379Z,101143.00
2023-01-02T16:27:24.027Z,101143.84
2023-01-02T16:29:53.244Z,101139.56
2023-01-02T16:32:26.934Z,101153.38
2023-01-02T16:35:03.439Z,101153.38
2023-01-02T16:37:36.483Z,101158.53
2023-01-02T16:41:00.676Z,101168.03
2023-01-02T16:43:30.740Z,101186.13
2023-01-02T16:45:58.862Z,101188.53
2023-01-02T16:48:29.780Z,101187.72
2023-01-02T16:50:59.135Z,101190.38
2023-01-02T16:53:29.626Z,101194.53
2023-01-02T16:55:58.536Z,101191.16
2023-01-02T16:58:26.473Z,101202.41
2023-01-02T17:00:55.540Z,101204.16
2023-01-02T17:03:25.369Z,101206.56
2023-01-02T17:06:02.418Z,101217.84
2023-01-02T17:08:31.521Z,101216.94
2023-01-02T17:11:00.945Z,101216.81
2023-01-02T17:13:29.842Z,101228.81
2023-01-02T17:15:57.788Z,101232.50
2023-01-02T17:18:25.919Z,101230.88
2023-01-02T17:20:53.494Z,101234.47
2023-01-02T17:23:21.111Z,101230.03
2023-01-02T17:25:48.962Z,101222.53
2023-01-02T17:28:18.072Z,101225.13
2023-01-02T17:30:49.989Z,101230.31
2023-01-02T17:33:18.632Z,101231.19
2023-01-02T17:35:46.547Z,101237.19
2023-01-02T17:38:14.289Z,101234.63
2023-01-02T17:40:41.733Z,101243.28
2023-01-02T17:43:09.196Z,101238.97
2023-01-02T17:45:38.070Z,101243.22
2023-01-02T17:48:11.662Z,101248.41
2023-01-02T17:50:41.012Z,101250.13
2023-01-02T17:53:08.653Z,101262.19
2023-01-02T17:55:36.272Z,101267.44
2023-01-02T17:58:04.137Z,101272.63
2023-01-02T18:00:31.550Z,101274.38
2023-01-02T18:03:00.320Z,101284.47
2023-01-02T18:05:27.950Z,101279.41
2023-01-02T18:07:55.443Z,101291.59
2023-01-02T18:10:25.955Z,101295.06
2023-01-02T18:12:56.785Z,101298.59
2023-01-02T18:15:24.568Z,101297.59
2023-01-02T18:17:53.442Z,101300.97
2023-01-02T18:20:23.804Z,101295.19
2023-01-02T18:22:51.402Z,101293.44
2023-01-02T18:25:20.889Z,101283.91
2023-01-02T18:27:48.914Z,101282.56
2023-01-02T18:30:20.979Z,101278.06
2023-01-02T18:32:49.527Z,101288.28
2023-01-02T18:35:55.582Z,101298.78
2023-01-02T18:38:19.417Z,101310.38
2023-01-02T18:40:47.240Z,101315.63
2023-01-02T18:43:23.082Z,101325.31
2023-01-02T18:45:54.418Z,101328.03
2023-01-02T18:48:23.157Z,101326.91
2023-01-02T18:50:57.860Z,101326.63
2023-01-02T18:53:30.431Z,101336.41
2023-01-02T18:56:03.107Z,101327.97
2023-01-02T18:58:40.877Z,101340.03
2023-01-02T19:01:23.048Z,101343.34
2023-01-02T19:03:56.505Z,101342.69
2023-01-02T19:06:25.778Z,101339.22
2023-01-02T19:08:56.201Z,101337.44
2023-01-02T19:11:51.843Z,101344.38
2023-01-02T19:14:22.931Z,101346.97
2023-01-02T19:16:57.364Z,101353.88
2023-01-02T19:19:26.793Z,101360.50
2023-01-02T19:21:55.788Z,101365.09
2023-01-02T19:24:30.160Z,101370.91
2023-01-02T19:26:59.603Z,101382.34
2023-01-02T19:29:28.645Z,101384.47
2023-01-02T19:32:02.372Z,101379.28
2023-01-02T19:34:40.300Z,101393.44
2023-01-02T19:37:35.588Z,101384.31
2023-01-02T19:40:14.637Z,101390.66
2023-01-02T19:42:46.129Z,101408.16
2023-01-02T19:45:17.027Z,101395.84
2023-01-02T19:47:44.930Z,101412.34
2023-01-02T19:50:14.883Z,101418.34
2023-01-02T19:52:42.655Z,101417.84
2023-01-02T19:55:12.545Z,101418.47
2023-01-02T19:57:40.340Z,101412.97
2023-01-02T20:00:12.692Z,101423.56
2023-01-02T20:02:41.003Z,101417.09
2023-01-02T20:05:09.592Z,101423.31
2023-01-02T20:07:37.009Z,101422.16
2023-01-02T20:10:05.187Z,101422.28
2023-01-02T20:12:35.500Z,101430.84
2023-01-02T20:15:05.256Z,101439.66
2023-01-02T20:17:33.045Z,101442.09
2023-01-02T20:20:00.761Z,101423.06
2023-01-02T20:22:28.877Z,101402.59
2023-01-02T20:24:56.580Z,101412.13
2023-01-02T20:27:24.897Z,101400.84
2023-01-02T20:29:56.194Z,101402.56
2023-01-02T20:32:24.743Z,101403.41
2023-01-02T20:34:52.603Z,101418.13
2023-01-02T20:37:21.047Z,101426.78
2023-01-02T20:39:49.869Z,101428.53
2023-01-02T20:42:18.018Z,101423.22
2023-01-02T20:44:45.801Z,101425.06
2023-01-02T20:47:14.771Z,101436.28
2023-01-02T20:49:42.663Z,101451.06
2023-01-02T20:52:10.429Z,101460.56
2023-01-02T20:54:38.193Z,101474.47
2023-01-02T20:57:05.650Z,101472.75
2023-01-02T20:59:33.240Z,101503.13
2023-01-02T21:02:00.803Z,101515.38
2023-01-02T21:04:36.259Z,101525.97
2023-01-02T21:07:04.145Z,101528.69
2023-01-02T21:09:31.588Z,101533.25
2023-01-02T21:11:58.993Z,101535.44
2023-01-02T21:14:26.385Z,101536.50
2023-01-02T21:16:54.734Z,101538.66
2023-01-02T21:19:22.432Z,101550.41
2023-01-02T21:21:51.215Z,101555.75
2023-01-02T21:24:18.678Z,101545.97
2023-01-02T21:26:46.113Z,101543.03
2023-01-02T21:29:13.532Z,101542.31
2023-01-02T21:31:41.021Z,101557.59
2023-01-02T21:34:08.490Z,101562.47
2023-01-02T21:36:37.021Z,101569.22
2023-01-02T21:39:05.940Z,101575.66
2023-01-02T21:41:50.940Z,101574.56
2023-01-02T21:44:18.343Z,101570.47
2023-01-02T21:46:45.866Z,101576.47
2023-01-02T21:49:13.325Z,101572.22
2023-01-02T21:51:40.742Z,101580.91
2023-01-02T21:54:09.490Z,101578.06
2023-01-02T21:56:36.909Z,101587.66
2023-01-02T21:59:04.321Z,101592.81
2023-01-02T22:01:32.018Z,101609.09
2023-01-02T22:03:59.590Z,101610.03
2023-01-02T22:06:33.808Z,101607.91
2023-01-02T22:09:01.800Z,101620.59
2023-01-02T22:11:48.109Z,101617.69
2023-01-02T22:14:15.653Z,101609.63
2023-01-02T22:16:43.145Z,101617.53
2023-01-02T22:19:10.682Z,101625.25
2023-01-02T22:21:38.487Z,101620.78
2023-01-02T22:24:06.532Z,101622.94
2023-01-02T22:26:36.459Z,101629.03
2023-01-02T22:29:04.337Z,101627.78
2023-01-02T22:31:32.557Z,101629.56
2023-01-02T22:34:00.505Z,101630.97
2023-01-02T22:36:31.321Z,101639.56
2023-01-02T22:39:26.584Z,101635.72
2023-01-02T22:41:51.207Z,101645.75
2023-01-02T22:44:22.207Z,101644.81
2023-01-02T22:46:52.256Z,101641.91
2023-01-02T22:49:23.793Z,101645.16
2023-01-02T22:52:09.624Z,101657.69
2023-01-02T22:54:37.103Z,101662.53
2023-01-02T22:57:10.165Z,101655.41
2023-01-02T22:59:37.650Z,101667.28
2023-01-02T23:02:05.789Z,101654.94
2023-01-02T23:04:33.504Z,101658.09
2023-01-02T23:09:49.474Z,101670.47
2023-01-02T23:12:18.209Z,101666.38
2023-01-02T23:14:45.670Z,101674.22
2023-01-02T23:17:31.143Z,101683.41
2023-01-02T23:19:58.581Z,101678.28
2023-01-02T23:22:26.135Z,101683.78
2023-01-02T23:24:54.042Z,101678.84
2023-01-02T23:27:23.063Z,101686.38
2023-01-02T23:29:50.498Z,101683.88
2023-01-02T23:32:18.115Z,101687.84
2023-01-02T23:34:45.562Z,101692.56
2023-01-02T23:37:13.042Z,101689.56
2023-01-02T23:39:40.676Z,101693.69
2023-01-02T23:42:08.150Z,101704.94
2023-01-02T23:44:38.340Z,101698.81
2023-01-02T23:47:10.210Z,101702.88
2023-01-02T23:49:40.886Z,101706.00
2023-01-02T23:52:08.315Z,101715.53
2023-01-02T23:54:35.760Z,101708.75
2023-01-02T23:57:03.226Z,101715.31
2023-01-02T23:59:30.672Z,101707.81
